createdAt,value
2022-10-02T00:01:08.303Z,14.20
2022-10-02T00:03:39.852Z,14.20
2022-10-02T00:06:12.890Z,14.30
2022-10-02T00:08:41.515Z,14.30
2022-10-02T00:11:10.701Z,14.30
2022-10-02T00:13:40.228Z,14.30
2022-10-02T00:16:12.027Z,14.30
2022-10-02T00:18:40.797Z,14.30
2022-10-02T00:21:15.421Z,14.30
2022-10-02T00:23:45.877Z,14.30
2022-10-02T00:26:16.149Z,14.30
2022-10-02T00:28:49.899Z,14.30
2022-10-02T00:31:24.794Z,14.30
2022-10-02T00:33:59.204Z,14.40
2022-10-02T00:36:35.357Z,14.40
2022-10-02T00:39:06.964Z,14.50
2022-10-02T00:41:53.695Z,14.50
2022-10-02T00:44:27.135Z,14.50
2022-10-02T00:46:59.746Z,14.60
2022-10-02T00:49:45.650Z,14.50
2022-10-02T00:52:20.211Z,14.60
2022-10-02T00:55:06.290Z,14.60
2022-10-02T00:57:41.466Z,14.60
2022-10-02T01:00:10.778Z,14.60
2022-10-02T01:02:45.893Z,14.60
2022-10-02T01:05:14.619Z,14.60
2022-10-02T01:07:46.040Z,14.60
2022-10-02T01:10:14.875Z,14.60
2022-10-02T01:12:45.612Z,14.60
2022-10-02T01:15:15.160Z,14.60
2022-10-02T01:17:43.516Z,14.60
2022-10-02T01:20:15.863Z,14.60
2022-10-02T01:22:52.429Z,14.60
2022-10-02T01:25:21.828Z,14.60
2022-10-02T01:27:50.440Z,14.60
2022-10-02T01:30:21.713Z,14.60
2022-10-02T01:32:50.787Z,14.50
2022-10-02T01:35:20.842Z,14.50
2022-10-02T01:37:50.615Z,14.50
2022-10-02T01:40:27.400Z,14.50
2022-10-02T01:42:55.955Z,14.50
2022-10-02T01:45:29.133Z,14.50
2022-10-02T01:48:01.395Z,14.60
2022-10-02T01:50:33.062Z,14.60
2022-10-02T01:53:04.894Z,14.60
2022-10-02T01:55:39.468Z,14.70
2022-10-02T01:58:14.463Z,14.80
2022-10-02T02:00:47.766Z,14.80
2022-10-02T02:03:20.907Z,14.80
2022-10-02T02:05:51.479Z,14.90
2022-10-02T02:08:25.725Z,14.90
2022-10-02T02:11:06.518Z,14.90
2022-10-02T02:13:37.064Z,14.90
2022-10-02T02:16:07.020Z,15.00
2022-10-02T02:18:36.729Z,14.90
2022-10-02T02:21:08.223Z,15.00
2022-10-02T02:23:37.819Z,15.00
2022-10-02T02:26:09.075Z,15.00
2022-10-02T02:28:37.767Z,15.00
2022-10-02T02:31:07.012Z,15.00
2022-10-02T02:33:38.442Z,15.00
2022-10-02T02:36:08.974Z,15.00
2022-10-02T02:38:38.499Z,15.00
2022-10-02T02:41:11.033Z,15.10
2022-10-02T02:43:40.901Z,15.00
2022-10-02T02:46:11.197Z,15.10
2022-10-02T02:48:41.074Z,15.20
2022-10-02T02:51:10.774Z,15.10
2022-10-02T02:53:39.681Z,15.20
2022-10-02T02:56:11.029Z,15.20
2022-10-02T02:58:42.293Z,15.20
2022-10-02T03:01:10.430Z,15.20
2022-10-02T03:03:38.309Z,15.30
2022-10-02T03:06:09.034Z,15.30
2022-10-02T03:08:37.569Z,15.40
2022-10-02T03:11:08.445Z,15.40
2022-10-02T03:13:47.414Z,15.40
2022-10-02T03:16:20.842Z,15.40
2022-10-02T03:18:53.327Z,15.50
2022-10-02T03:21:24.154Z,15.60
2022-10-02T03:23:56.103Z,15.60
2022-10-02T03:26:30.183Z,15.60
2022-10-02T03:29:04.158Z,15.60
2022-10-02T03:31:33.714Z,15.60
2022-10-02T03:34:02.651Z,15.60
2022-10-02T03:36:31.029Z,15.60
2022-10-02T03:39:23.797Z,15.70
2022-10-02T03:41:49.823Z,15.70
2022-10-02T03:44:22.132Z,15.70
2022-10-02T03:46:50.148Z,15.80
2022-10-02T03:49:18.047Z,15.80
2022-10-02T03:51:46.705Z,15.90
2022-10-02T03:54:16.649Z,15.80
2022-10-02T03:56:47.573Z,15.90
2022-10-02T03:59:17.374Z,15.90
2022-10-02T04:01:50.332Z,16.00
2022-10-02T04:04:19.476Z,16.00
2022-10-02T04:06:50.442Z,16.10
2022-10-02T04:09:20.613Z,16.10
2022-10-02T04:11:50.661Z,16.10
2022-10-02T04:14:21.671Z,16.10
2022-10-02T04:16:54.587Z,16.10
2022-10-02T04:19:24.626Z,16.20
2022-10-02T04:21:55.639Z,16.20
2022-10-02T04:24:29.369Z,16.20
2022-10-02T04:27:01.444Z,16.20
2022-10-02T04:29:33.008Z,16.20
2022-10-02T04:32:08.853Z,16.20
2022-10-02T04:34:36.735Z,16.30
2022-10-02T04:37:12.249Z,16.30
2022-10-02T04:39:49.109Z,16.20
2022-10-02T04:42:22.831Z,16.20
2022-10-02T04:44:58.453Z,16.20
2022-10-02T04:47:38.554Z,16.20
2022-10-02T04:50:22.547Z,16.30
2022-10-02T04:53:12.076Z,16.30
2022-10-02T04:55:50.792Z,16.30
2022-10-02T04:58:25.636Z,16.40
2022-10-02T05:00:57.919Z,16.40
2022-10-02T05:03:33.800Z,16.40
2022-10-02T05:06:13.431Z,16.40
2022-10-02T05:08:46.085Z,16.40
2022-10-02T05:11:20.634Z,16.50
2022-10-02T05:14:04.165Z,16.50
2022-10-02T05:16:35.705Z,16.50
2022-10-02T05:19:18.619Z,16.50
2022-10-02T05:21:58.256Z,16.50
2022-10-02T05:24:36.137Z,16.50
2022-10-02T05:27:17.274Z,16.50
2022-10-02T05:30:00.116Z,16.50
2022-10-02T05:36:05.005Z,16.50
2022-10-02T05:38:45.190Z,16.60
2022-10-02T05:41:17.132Z,16.50
2022-10-02T05:43:47.564Z,16.60
2022-10-02T05:46:17.452Z,16.60
2022-10-02T05:48:49.433Z,16.60
2022-10-02T05:51:19.681Z,16.60
2022-10-02T05:53:58.336Z,16.60
2022-10-02T05:56:44.559Z,16.50
2022-10-02T06:02:47.484Z,16.50
2022-10-02T06:05:35.900Z,16.50
2022-10-02T06:08:05.070Z,16.60
2022-10-02T06:10:37.196Z,16.60
2022-10-02T06:13:08.976Z,16.70
2022-10-02T06:15:40.921Z,16.70
2022-10-02T06:18:10.431Z,16.80
2022-10-02T06:20:40.650Z,16.80
2022-10-02T06:23:12.737Z,16.80
2022-10-02T06:25:44.262Z,16.80
2022-10-02T06:28:15.651Z,16.90
2022-10-02T06:30:45.697Z,17.00
2022-10-02T06:33:16.150Z,17.00
2022-10-02T06:35:51.504Z,17.10
2022-10-02T06:38:24.495Z,17.10
2022-10-02T06:40:58.301Z,17.10
2022-10-02T06:43:33.148Z,17.10
2022-10-02T06:46:07.278Z,17.10
2022-10-02T06:48:41.101Z,17.20
2022-10-02T06:51:12.192Z,17.20
2022-10-02T06:53:47.090Z,17.20
2022-10-02T06:56:30.292Z,17.20
2022-10-02T06:59:04.074Z,17.20
2022-10-02T07:01:38.574Z,17.20
2022-10-02T07:04:20.002Z,17.20
2022-10-02T07:06:54.081Z,17.20
2022-10-02T07:09:30.125Z,17.20
2022-10-02T07:12:04.232Z,17.30
2022-10-02T07:14:36.151Z,17.20
2022-10-02T07:17:17.469Z,17.30
2022-10-02T07:20:03.466Z,17.30
2022-10-02T07:22:50.859Z,17.30
2022-10-02T07:25:30.849Z,17.40
2022-10-02T07:28:05.818Z,17.50
2022-10-02T07:30:38.083Z,17.50
2022-10-02T07:33:10.245Z,17.60
2022-10-02T07:35:42.964Z,17.60
2022-10-02T07:38:21.456Z,17.70
2022-10-02T07:40:56.935Z,17.70
2022-10-02T07:43:40.660Z,17.90
2022-10-02T07:46:14.909Z,17.90
2022-10-02T07:48:49.233Z,18.10
2022-10-02T07:51:38.214Z,18.10
2022-10-02T07:54:13.604Z,18.20
2022-10-02T07:56:41.787Z,18.20
2022-10-02T07:59:13.140Z,18.40
2022-10-02T08:01:41.853Z,18.40
2022-10-02T08:04:12.086Z,18.50
2022-10-02T08:06:40.679Z,18.50
2022-10-02T08:09:11.809Z,18.50
2022-10-02T08:11:44.089Z,18.50
2022-10-02T08:14:19.494Z,18.40
2022-10-02T08:16:49.511Z,18.50
2022-10-02T08:19:18.491Z,18.40
2022-10-02T08:21:48.082Z,18.50
2022-10-02T08:24:18.218Z,18.40
2022-10-02T08:26:48.651Z,18.40
2022-10-02T08:29:21.018Z,18.40
2022-10-02T08:31:50.381Z,18.40
2022-10-02T08:34:19.497Z,18.40
2022-10-02T08:36:54.284Z,18.40
2022-10-02T08:39:46.474Z,18.50
2022-10-02T08:42:25.980Z,18.50
2022-10-02T08:45:08.172Z,18.60
2022-10-02T08:47:56.655Z,18.60
2022-10-02T08:50:43.039Z,18.70
2022-10-02T08:53:40.824Z,18.80
2022-10-02T08:56:20.326Z,18.90
2022-10-02T08:59:19.117Z,19.00
2022-10-02T09:02:11.189Z,19.20
2022-10-02T09:04:54.462Z,19.20
2022-10-02T09:07:53.792Z,19.30
2022-10-02T09:10:45.939Z,19.40
2022-10-02T09:13:31.986Z,19.40
2022-10-02T09:16:08.344Z,19.50
2022-10-02T09:18:49.937Z,19.60
2022-10-02T09:21:18.507Z,19.70
2022-10-02T09:24:05.312Z,19.80
2022-10-02T09:26:45.531Z,20.00
2022-10-02T09:29:34.977Z,20.00
2022-10-02T09:32:24.343Z,20.10
2022-10-02T09:35:17.868Z,20.20
2022-10-02T09:38:05.460Z,20.20
2022-10-02T09:40:54.403Z,20.20
2022-10-02T10:30:59.757Z,20.80
2022-10-02T10:37:15.626Z,20.80
2022-10-02T10:40:17.559Z,20.80
2022-10-02T10:43:20.443Z,20.80
2022-10-02T10:46:02.695Z,20.90
2022-10-02T10:48:35.674Z,21.00
2022-10-02T10:51:19.250Z,20.90
2022-10-02T10:54:11.227Z,20.90
2022-10-02T10:56:42.914Z,21.00
2022-10-02T10:59:29.337Z,21.00
2022-10-02T11:02:04.612Z,21.10
2022-10-02T11:04:46.715Z,21.20
2022-10-02T11:07:23.174Z,21.30
2022-10-02T11:09:58.253Z,21.40
2022-10-02T11:12:44.520Z,21.60
2022-10-02T11:15:20.644Z,21.60
2022-10-02T11:17:56.395Z,21.80
2022-10-02T11:20:38.116Z,21.90
2022-10-02T11:23:20.547Z,21.90
2022-10-02T11:26:02.573Z,21.90
2022-10-02T11:28:38.957Z,21.80
2022-10-02T11:31:21.352Z,21.80
2022-10-02T11:33:57.585Z,21.90
2022-10-02T11:36:41.652Z,22.10
2022-10-02T11:39:17.299Z,22.30
2022-10-02T11:42:05.926Z,22.40
2022-10-02T11:44:44.882Z,22.50
2022-10-02T11:47:21.512Z,22.40
2022-10-02T11:50:07.785Z,22.40
2022-10-02T11:52:48.144Z,22.50
2022-10-02T11:55:23.322Z,22.60
2022-10-02T11:58:00.401Z,22.70
2022-10-02T12:00:55.602Z,22.80
2022-10-02T12:03:29.240Z,22.90
2022-10-02T12:06:02.820Z,22.80
2022-10-02T12:08:37.943Z,22.70
2022-10-02T12:11:09.282Z,22.60
2022-10-02T12:14:01.200Z,22.60
2022-10-02T12:16:35.103Z,22.70
2022-10-02T12:19:16.612Z,22.80
2022-10-02T12:22:06.649Z,22.80
2022-10-02T12:24:56.847Z,22.80
2022-10-02T12:27:31.614Z,22.80
2022-10-02T12:30:04.163Z,22.70
2022-10-02T12:32:41.266Z,22.60
2022-10-02T12:35:21.444Z,22.50
2022-10-02T12:37:56.294Z,22.40
2022-10-02T12:40:30.406Z,22.40
2022-10-02T12:43:04.105Z,22.50
2022-10-02T12:45:43.961Z,22.60
2022-10-02T12:48:19.231Z,22.70
2022-10-02T12:51:05.842Z,22.80
2022-10-02T12:53:59.411Z,23.00
2022-10-02T12:56:44.057Z,23.30
2022-10-02T12:59:15.405Z,23.90
2022-10-02T13:01:53.535Z,24.20
2022-10-02T13:04:39.144Z,24.40
2022-10-02T13:07:30.231Z,24.50
2022-10-02T13:10:02.756Z,24.40
2022-10-02T13:12:41.617Z,24.30
2022-10-02T13:15:19.943Z,24.00
2022-10-02T13:17:52.801Z,23.80
2022-10-02T13:20:24.803Z,23.70
2022-10-02T13:22:55.352Z,23.70
2022-10-02T13:25:34.957Z,23.60
2022-10-02T13:28:13.563Z,23.50
2022-10-02T13:30:43.147Z,23.40
2022-10-02T13:33:15.202Z,23.30
2022-10-02T13:35:53.907Z,23.30
2022-10-02T13:38:31.902Z,23.20
2022-10-02T13:41:05.029Z,23.00
2022-10-02T13:43:45.614Z,22.80
2022-10-02T13:46:20.163Z,22.60
2022-10-02T13:48:55.206Z,22.50
2022-10-02T13:51:24.773Z,22.30
2022-10-02T13:54:04.425Z,22.30
2022-10-02T13:56:46.093Z,22.30
2022-10-02T13:59:23.344Z,22.20
2022-10-02T14:01:57.525Z,22.10
2022-10-02T14:04:33.816Z,22.20
2022-10-02T14:07:05.451Z,22.20
2022-10-02T14:09:40.274Z,22.40
2022-10-02T14:12:15.778Z,22.50
2022-10-02T14:14:49.534Z,22.60
2022-10-02T14:17:22.850Z,22.60
2022-10-02T14:19:57.618Z,22.50
2022-10-02T14:22:34.865Z,22.50
2022-10-02T14:25:09.478Z,22.50
2022-10-02T14:27:56.560Z,22.50
2022-10-02T14:30:26.079Z,22.60
2022-10-02T14:33:00.801Z,22.70
2022-10-02T14:35:43.387Z,22.80
2022-10-02T14:38:26.481Z,22.90
2022-10-02T14:40:55.051Z,22.80
2022-10-02T14:43:40.491Z,22.70
2022-10-02T14:46:19.478Z,22.60
2022-10-02T14:49:05.756Z,22.50
2022-10-02T14:51:43.997Z,22.50
2022-10-02T14:54:23.232Z,22.40
2022-10-02T14:56:55.131Z,22.30
2022-10-02T14:59:29.949Z,22.30
2022-10-02T15:02:09.180Z,22.30
2022-10-02T15:04:43.750Z,22.20
2022-10-02T15:07:12.877Z,22.20
2022-10-02T15:09:49.221Z,22.10
2022-10-02T15:12:19.411Z,22.10
2022-10-02T15:14:55.850Z,22.10
2022-10-02T15:17:48.795Z,22.10
2022-10-02T15:20:21.611Z,22.00
2022-10-02T15:22:55.998Z,22.00
2022-10-02T15:25:31.856Z,21.90
2022-10-02T15:28:31.498Z,21.90
2022-10-02T15:30:56.891Z,21.90
2022-10-02T15:33:30.606Z,21.90
2022-10-02T15:36:07.039Z,21.90
2022-10-02T15:38:50.388Z,21.80
2022-10-02T15:41:33.077Z,21.80
2022-10-02T15:44:06.922Z,21.50
2022-10-02T15:46:38.494Z,21.30
2022-10-02T15:49:10.685Z,21.10
2022-10-02T15:51:46.264Z,21.00
2022-10-02T15:54:25.367Z,20.90
2022-10-02T15:57:03.536Z,20.90
2022-10-02T15:59:39.030Z,20.80
2022-10-02T16:02:19.417Z,20.70
2022-10-02T16:04:56.913Z,20.70
2022-10-02T16:07:43.325Z,20.70
2022-10-02T16:10:19.215Z,20.60
2022-10-02T16:12:54.760Z,20.50
2022-10-02T16:15:24.607Z,20.50
2022-10-02T16:18:02.966Z,20.40
2022-10-02T16:20:52.414Z,20.30
2022-10-02T16:23:30.110Z,20.20
2022-10-02T16:26:08.660Z,20.20
2022-10-02T16:28:48.914Z,20.10
2022-10-02T16:31:23.545Z,20.10
2022-10-02T16:34:00.040Z,20.10
2022-10-02T16:36:34.334Z,20.00
2022-10-02T16:39:14.520Z,20.00
2022-10-02T16:41:55.193Z,19.90
2022-10-02T16:44:32.423Z,19.90
2022-10-02T16:47:02.540Z,19.80
2022-10-02T16:49:32.999Z,19.70
2022-10-02T16:52:05.948Z,19.60
2022-10-02T16:54:38.763Z,19.50
2022-10-02T16:57:09.260Z,19.40
2022-10-02T16:59:43.506Z,19.30
2022-10-02T17:02:18.880Z,19.20
2022-10-02T17:04:54.739Z,19.10
2022-10-02T17:07:27.501Z,19.10
2022-10-02T17:09:59.410Z,19.10
2022-10-02T17:12:28.782Z,19.10
2022-10-02T17:15:00.426Z,19.10
2022-10-02T17:17:32.655Z,19.10
2022-10-02T17:20:05.967Z,19.10
2022-10-02T17:22:40.377Z,19.00
2022-10-02T17:25:15.780Z,18.90
2022-10-02T17:27:48.084Z,18.90
2022-10-02T17:30:18.826Z,18.90
2022-10-02T17:32:52.223Z,18.90
2022-10-02T17:35:30.138Z,18.80
2022-10-02T17:38:06.446Z,18.70
2022-10-02T17:40:38.879Z,18.60
2022-10-02T17:43:13.422Z,18.60
2022-10-02T17:45:45.548Z,18.50
2022-10-02T17:48:26.620Z,18.50
2022-10-02T17:50:59.484Z,18.40
2022-10-02T17:54:03.724Z,18.30
2022-10-02T17:56:49.992Z,18.20
2022-10-02T17:59:33.013Z,18.20
2022-10-02T18:02:03.917Z,18.10
2022-10-02T18:04:35.832Z,18.00
2022-10-02T18:07:11.645Z,17.90
2022-10-02T18:09:45.043Z,17.90
2022-10-02T18:12:30.109Z,17.80
2022-10-02T18:15:19.235Z,17.80
2022-10-02T18:18:01.326Z,17.70
2022-10-02T18:20:34.354Z,17.70
2022-10-02T18:23:13.803Z,17.60
2022-10-02T18:26:05.314Z,17.60
2022-10-02T18:28:52.736Z,17.60
2022-10-02T18:31:51.056Z,17.60
2022-10-02T18:34:26.599Z,17.50
2022-10-02T18:37:00.455Z,17.50
2022-10-02T18:40:04.851Z,17.50
2022-10-02T18:42:42.623Z,17.50
2022-10-02T18:45:27.177Z,17.40
2022-10-02T18:48:00.236Z,17.30
2022-10-02T18:50:46.828Z,17.20
2022-10-02T18:53:25.502Z,17.00
2022-10-02T18:56:02.974Z,16.90
2022-10-02T18:58:42.796Z,16.80
2022-10-02T19:01:18.445Z,16.70
2022-10-02T19:03:57.808Z,16.60
2022-10-02T19:06:29.613Z,16.50
2022-10-02T19:09:04.100Z,16.40
2022-10-02T19:11:34.184Z,16.30
2022-10-02T19:14:09.445Z,16.30
2022-10-02T19:16:37.448Z,16.10
2022-10-02T19:19:09.882Z,16.00
2022-10-02T19:21:38.517Z,15.90
2022-10-02T19:24:08.577Z,15.90
2022-10-02T19:26:45.611Z,15.80
2022-10-02T19:29:23.071Z,15.80
2022-10-02T19:31:51.338Z,15.70
2022-10-02T19:34:22.139Z,15.70
2022-10-02T19:36:53.999Z,15.70
2022-10-02T19:39:24.576Z,15.60
2022-10-02T19:41:55.493Z,15.60
2022-10-02T19:44:27.292Z,15.60
2022-10-02T19:46:58.520Z,15.60
2022-10-02T19:49:28.444Z,15.60
2022-10-02T19:51:57.052Z,15.60
2022-10-02T19:54:27.414Z,15.60
2022-10-02T19:56:58.179Z,15.60
2022-10-02T19:59:29.628Z,15.50
2022-10-02T20:01:59.068Z,15.40
2022-10-02T20:04:27.878Z,15.40
2022-10-02T20:06:56.987Z,15.30
2022-10-02T20:09:27.720Z,15.20
2022-10-02T20:11:59.543Z,15.10
2022-10-02T20:14:34.175Z,15.10
2022-10-02T20:17:13.937Z,15.10
2022-10-02T20:19:45.348Z,15.00
2022-10-02T20:22:26.213Z,15.00
2022-10-02T20:24:57.004Z,15.00
2022-10-02T20:27:42.124Z,14.90
2022-10-02T20:30:15.355Z,14.90
2022-10-02T20:32:46.384Z,14.80
2022-10-02T20:35:16.419Z,14.80
2022-10-02T20:37:46.708Z,14.80
2022-10-02T20:40:18.386Z,14.70
2022-10-02T20:42:50.171Z,14.70
2022-10-02T20:45:23.181Z,14.70
2022-10-02T20:48:08.796Z,14.70
2022-10-02T20:50:42.845Z,14.70
2022-10-02T20:53:30.814Z,14.60
2022-10-02T20:56:00.605Z,14.60
2022-10-02T20:58:59.985Z,14.60
2022-10-02T21:01:33.342Z,14.50
2022-10-02T21:04:13.610Z,14.50
2022-10-02T21:06:57.631Z,14.40
2022-10-02T21:09:43.958Z,14.40
2022-10-02T21:12:44.636Z,14.20
2022-10-02T21:15:30.382Z,14.20
2022-10-02T21:18:07.685Z,14.20
2022-10-02T21:21:02.476Z,14.10
2022-10-02T21:23:48.623Z,14.10
2022-10-02T21:26:43.999Z,14.00
2022-10-02T21:29:25.222Z,14.00
2022-10-02T21:32:17.016Z,14.00
2022-10-02T21:34:54.693Z,13.90
2022-10-02T21:37:27.351Z,13.90
2022-10-02T21:40:18.851Z,13.80
2022-10-02T21:42:57.191Z,13.80
2022-10-02T21:45:56.195Z,13.70
2022-10-02T21:48:48.275Z,13.70
2022-10-02T21:51:43.304Z,13.50
2022-10-02T21:54:38.530Z,13.40
2022-10-02T21:57:32.891Z,13.40
2022-10-02T22:00:08.324Z,13.30
2022-10-02T22:02:48.380Z,13.30
2022-10-02T22:05:29.389Z,13.30
2022-10-02T22:08:01.446Z,13.30
2022-10-02T22:10:36.526Z,13.30
2022-10-02T22:13:18.125Z,13.30
2022-10-02T22:15:50.469Z,13.30
2022-10-02T22:18:22.472Z,13.20
2022-10-02T22:21:05.749Z,13.20
2022-10-02T22:23:44.826Z,13.10
2022-10-02T22:26:19.738Z,13.10
2022-10-02T22:28:53.387Z,13.10
2022-10-02T22:31:46.352Z,12.90
2022-10-02T22:34:29.999Z,12.90
2022-10-02T22:37:17.913Z,12.90
2022-10-02T22:39:47.949Z,12.80
2022-10-02T22:42:25.330Z,12.80
2022-10-02T22:44:54.259Z,12.80
2022-10-02T22:47:26.306Z,12.70
2022-10-02T22:49:56.591Z,12.80
2022-10-02T22:52:26.355Z,12.80
2022-10-02T22:54:59.553Z,12.70
2022-10-02T22:57:34.104Z,12.70
2022-10-02T23:00:03.759Z,12.60
2022-10-02T23:02:33.195Z,12.60
2022-10-02T23:05:05.991Z,12.60
2022-10-02T23:07:38.410Z,12.60
2022-10-02T23:10:13.557Z,12.50
2022-10-02T23:12:44.993Z,12.50
2022-10-02T23:15:22.113Z,12.50
2022-10-02T23:17:53.981Z,12.50
2022-10-02T23:20:28.704Z,12.50
2022-10-02T23:22:58.905Z,12.50
2022-10-02T23:25:30.232Z,12.40
2022-10-02T23:28:01.305Z,12.40
2022-10-02T23:30:34.714Z,12.40
2022-10-02T23:33:06.883Z,12.30
2022-10-02T23:35:37.204Z,12.30
2022-10-02T23:38:08.706Z,12.30
2022-10-02T23:41:10.529Z,12.30
2022-10-02T23:43:48.551Z,12.30
2022-10-02T23:46:18.511Z,12.20
2022-10-02T23:48:49.142Z,12.10
2022-10-02T23:51:21.041Z,12.10
2022-10-02T23:54:02.831Z,12.10
2022-10-02T23:56:47.300Z,12.10
2022-10-02T23:59:22.822Z,12.10
